createdAt,value
2023-03-23T15:58:45.674Z,46.27
2023-03-23T16:01:15.835Z,48.04
2023-03-23T16:04:05.854Z,48.23
2023-03-23T16:06:34.276Z,49.39
2023-03-23T16:09:01.650Z,46.91
2023-03-23T16:11:33.918Z,48.82
2023-03-23T16:14:01.821Z,49.46
2023-03-23T16:16:32.462Z,51.11
2023-03-23T16:19:00.149Z,50.95
2023-03-23T16:21:27.780Z,52.57
2023-03-23T16:23:55.860Z,53.60
2023-03-23T16:26:23.810Z,54.19
2023-03-23T16:28:53.278Z,55.05
2023-03-23T16:31:23.310Z,56.33
2023-03-23T16:33:50.789Z,56.28
2023-03-23T16:36:18.046Z,56.79
2023-03-23T16:38:49.545Z,56.91
2023-03-23T16:41:17.370Z,56.49
2023-03-23T16:43:46.137Z,56.85
2023-03-23T16:46:14.417Z,56.57
2023-03-23T16:48:42.104Z,55.02
2023-03-23T16:51:12.036Z,54.84
2023-03-23T16:53:39.958Z,50.84
2023-03-23T16:56:07.311Z,53.68
2023-03-23T16:58:36.584Z,53.73
2023-03-23T17:01:04.124Z,54.70
2023-03-23T17:03:37.352Z,54.75
2023-03-23T17:06:05.835Z,55.83
2023-03-23T17:08:33.212Z,57.19
2023-03-23T17:11:06.754Z,57.54
2023-03-23T17:13:34.640Z,57.46
2023-03-23T17:16:01.889Z,57.84
2023-03-23T17:18:29.386Z,56.18
2023-03-23T17:20:57.469Z,57.37
2023-03-23T17:23:24.831Z,57.62
2023-03-23T17:25:52.133Z,58.43
2023-03-23T17:28:20.852Z,58.75
2023-03-23T17:30:51.277Z,58.77
2023-03-23T17:33:25.331Z,58.91
2023-03-23T17:35:52.743Z,58.46
2023-03-23T17:38:20.806Z,57.98
2023-03-23T17:40:48.161Z,58.00
2023-03-23T17:43:20.603Z,59.93
2023-03-23T17:45:48.288Z,60.01
2023-03-23T17:48:15.859Z,60.87
2023-03-23T17:50:47.221Z,61.24
2023-03-23T17:53:14.922Z,60.82
2023-03-23T17:55:43.537Z,61.77
2023-03-23T17:58:12.189Z,60.05
2023-03-23T18:00:39.469Z,60.76
2023-03-23T18:03:06.834Z,59.88
2023-03-23T18:05:35.331Z,60.35
2023-03-23T18:08:02.615Z,60.65
2023-03-23T18:10:35.605Z,61.25
2023-03-23T18:13:03.717Z,61.02
2023-03-23T18:15:33.442Z,61.12
2023-03-23T18:18:03.553Z,61.21
2023-03-23T18:20:31.887Z,61.90
2023-03-23T18:22:59.310Z,62.19
2023-03-23T18:25:27.235Z,63.00
2023-03-23T18:27:54.544Z,63.21
2023-03-23T18:30:22.584Z,64.33
2023-03-23T18:32:50.675Z,64.89
2023-03-23T18:35:18.171Z,65.06
2023-03-23T18:37:47.883Z,65.52
2023-03-23T18:40:15.725Z,66.19
2023-03-23T18:42:44.994Z,66.34
2023-03-23T18:45:12.327Z,65.37
2023-03-23T18:47:39.677Z,65.52
2023-03-23T18:50:08.145Z,65.65
2023-03-23T18:52:37.900Z,65.78
2023-03-23T18:55:05.964Z,66.06
2023-03-23T18:57:39.376Z,65.30
2023-03-23T19:00:08.267Z,65.48
2023-03-23T19:02:36.262Z,65.89
2023-03-23T19:05:07.724Z,66.75
2023-03-23T19:07:35.890Z,66.54
2023-03-23T19:10:03.274Z,66.53
2023-03-23T19:12:32.159Z,66.44
2023-03-23T19:14:59.552Z,66.27
2023-03-23T19:17:27.112Z,66.56
2023-03-23T19:19:58.904Z,66.18
2023-03-23T19:22:26.103Z,66.67
2023-03-23T19:24:53.311Z,66.49
2023-03-23T19:27:21.048Z,67.13
2023-03-23T19:29:49.119Z,67.88
2023-03-23T19:32:18.646Z,66.75
2023-03-23T19:34:50.692Z,66.95
2023-03-23T19:37:18.760Z,67.21
2023-03-23T19:39:47.114Z,67.29
2023-03-23T19:42:16.923Z,67.90
2023-03-23T19:44:44.835Z,66.66
2023-03-23T19:47:12.663Z,68.20
2023-03-23T19:49:45.600Z,68.53
2023-03-23T19:52:14.963Z,69.58
2023-03-23T19:54:43.758Z,70.32
2023-03-23T19:57:11.273Z,69.98
2023-03-23T19:59:39.243Z,69.81
2023-03-23T20:02:07.119Z,68.96
2023-03-23T20:04:35.347Z,69.70
2023-03-23T20:07:06.935Z,69.43
2023-03-23T20:09:35.215Z,68.26
2023-03-23T20:12:05.148Z,70.08
2023-03-23T20:14:34.149Z,72.00
2023-03-23T20:17:01.772Z,73.47
2023-03-23T20:19:29.157Z,71.31
2023-03-23T20:21:57.331Z,73.25
2023-03-23T20:24:24.956Z,74.42
2023-03-23T20:26:52.864Z,73.39
2023-03-23T20:29:20.521Z,74.56
2023-03-23T20:31:50.881Z,74.79
2023-03-23T20:34:28.957Z,73.78
2023-03-23T20:36:58.153Z,73.35
2023-03-23T20:39:30.576Z,74.22
2023-03-23T20:41:59.311Z,72.82
2023-03-23T20:44:29.433Z,74.03
2023-03-23T20:46:59.711Z,73.46
2023-03-23T20:49:27.706Z,74.21
2023-03-23T20:51:55.631Z,72.77
2023-03-23T20:54:24.547Z,72.65
2023-03-23T20:56:53.288Z,72.28
2023-03-23T20:59:21.593Z,73.73
2023-03-23T21:01:50.547Z,72.99
2023-03-23T21:04:19.372Z,73.29
2023-03-23T21:06:49.033Z,73.76
2023-03-23T21:09:17.393Z,69.85
2023-03-23T21:11:47.420Z,68.81
2023-03-23T21:14:16.431Z,65.21
2023-03-23T21:16:44.018Z,64.62
2023-03-23T21:19:12.188Z,64.46
2023-03-23T21:21:56.780Z,63.99
2023-03-23T21:24:28.837Z,63.60
2023-03-23T21:26:59.358Z,64.15
2023-03-23T21:29:27.723Z,62.84
2023-03-23T21:32:07.658Z,63.95
2023-03-23T21:34:37.007Z,65.55
2023-03-23T21:37:04.326Z,66.54
2023-03-23T21:39:35.664Z,67.97
2023-03-23T21:42:05.303Z,68.55
2023-03-23T21:44:35.032Z,69.06
2023-03-23T21:47:02.513Z,69.91
2023-03-23T21:49:31.521Z,70.05
2023-03-23T21:51:59.004Z,69.74
2023-03-23T21:54:30.074Z,70.20
2023-03-23T21:56:58.543Z,70.06
2023-03-23T21:59:26.345Z,69.86
2023-03-23T22:01:54.873Z,69.93
2023-03-23T22:04:22.313Z,69.52
2023-03-23T22:06:53.175Z,70.94
2023-03-23T22:09:20.548Z,71.03
2023-03-23T22:11:47.966Z,70.63
2023-03-23T22:14:15.397Z,70.44
2023-03-23T22:16:43.151Z,70.41
2023-03-23T22:19:10.545Z,70.43
2023-03-23T22:21:37.938Z,71.88
2023-03-23T22:24:05.933Z,71.79
2023-03-23T22:26:33.281Z,71.71
2023-03-23T22:29:07.356Z,70.09
2023-03-23T22:31:37.921Z,70.69
2023-03-23T22:34:05.621Z,69.21
2023-03-23T22:36:33.389Z,70.33
2023-03-23T22:39:00.920Z,70.13
2023-03-23T22:41:31.022Z,71.26
2023-03-23T22:43:58.901Z,72.59
2023-03-23T22:46:26.271Z,72.42
2023-03-23T22:48:53.554Z,73.74
2023-03-23T22:51:21.501Z,74.17
2023-03-23T22:53:49.741Z,73.87
2023-03-23T22:56:18.721Z,76.21
2023-03-23T22:58:46.704Z,77.58
2023-03-23T23:01:21.522Z,79.18
2023-03-23T23:03:49.011Z,78.57
2023-03-23T23:06:17.072Z,79.49
2023-03-23T23:08:44.690Z,80.58
2023-03-23T23:11:14.117Z,80.23
2023-03-23T23:13:41.744Z,79.59
2023-03-23T23:16:11.519Z,78.79
2023-03-23T23:18:40.584Z,78.79
2023-03-23T23:21:14.506Z,78.08
2023-03-23T23:23:42.389Z,79.11
2023-03-23T23:26:09.780Z,79.67
2023-03-23T23:28:37.062Z,79.42
2023-03-23T23:31:06.372Z,79.20
2023-03-23T23:33:33.685Z,79.25
2023-03-23T23:36:01.657Z,79.54
2023-03-23T23:38:29.410Z,80.77
2023-03-23T23:40:59.803Z,80.68
2023-03-23T23:43:28.351Z,80.52
2023-03-23T23:45:56.074Z,81.44
2023-03-23T23:48:23.349Z,80.90
2023-03-23T23:50:51.559Z,80.49
2023-03-23T23:53:22.832Z,80.17
2023-03-23T23:55:50.943Z,79.24
2023-03-23T23:58:20.626Z,77.18
